createdAt,value
2019-05-26T00:02:12.634Z,51.83
2019-05-26T00:04:40.963Z,51.00
2019-05-26T00:07:09.259Z,51.21
2019-05-26T00:09:37.572Z,51.67
2019-05-26T00:12:05.948Z,51.63
2019-05-26T00:14:34.336Z,51.55
2019-05-26T00:17:02.703Z,51.09
2019-05-26T00:19:31.003Z,54.55
2019-05-26T00:21:59.385Z,54.55
2019-05-26T00:24:29.436Z,53.22
2019-05-26T00:26:57.929Z,54.09
2019-05-26T00:29:26.230Z,55.26
2019-05-26T00:31:54.616Z,54.86
2019-05-26T00:34:23.290Z,52.02
2019-05-26T00:36:51.620Z,55.55
2019-05-26T00:39:20.060Z,56.65
2019-05-26T00:41:48.363Z,51.30
2019-05-26T00:44:16.746Z,51.83
2019-05-26T00:46:45.087Z,51.44
2019-05-26T00:49:13.467Z,54.30
2019-05-26T00:51:41.836Z,54.02
2019-05-26T00:54:10.218Z,55.61
2019-05-26T00:56:38.854Z,53.42
2019-05-26T00:59:07.235Z,53.53
2019-05-26T01:01:36.510Z,52.72
2019-05-26T01:04:05.128Z,52.07
2019-05-26T01:06:33.496Z,54.60
2019-05-26T01:09:01.870Z,53.63
2019-05-26T01:11:30.213Z,54.81
2019-05-26T01:13:58.508Z,53.99
2019-05-26T01:16:26.831Z,53.69
2019-05-26T01:18:55.192Z,55.76
2019-05-26T01:21:23.876Z,56.78
2019-05-26T01:23:52.171Z,56.54
2019-05-26T01:26:20.582Z,54.68
2019-05-26T01:28:48.919Z,56.79
2019-05-26T01:31:17.303Z,53.09
2019-05-26T01:33:45.982Z,56.35
2019-05-26T01:36:14.572Z,57.25
2019-05-26T01:38:43.458Z,58.50
2019-05-26T01:41:12.055Z,56.87
2019-05-26T01:43:40.380Z,54.88
2019-05-26T01:46:09.016Z,59.37
2019-05-26T01:48:37.313Z,60.50
2019-05-26T01:51:05.804Z,63.02
2019-05-26T01:53:34.484Z,67.19
2019-05-26T01:56:02.820Z,64.45
2019-05-26T01:58:31.174Z,63.47
2019-05-26T02:00:59.922Z,65.31
2019-05-26T02:03:28.221Z,65.08
2019-05-26T02:05:56.895Z,64.22
2019-05-26T02:08:38.433Z,60.24
2019-05-26T02:10:55.572Z,61.84
2019-05-26T02:13:23.958Z,58.96
2019-05-26T02:15:52.358Z,58.86
2019-05-26T02:18:20.683Z,56.94
2019-05-26T02:20:48.984Z,59.88
2019-05-26T02:23:17.612Z,61.21
2019-05-26T02:25:46.810Z,57.96
2019-05-26T02:28:15.197Z,55.30
2019-05-26T02:30:43.504Z,55.19
2019-05-26T02:33:12.164Z,53.81
2019-05-26T02:35:40.535Z,53.31
2019-05-26T02:38:08.837Z,57.20
2019-05-26T02:40:37.231Z,55.17
2019-05-26T02:43:05.542Z,52.97
2019-05-26T02:45:35.498Z,51.20
2019-05-26T02:48:04.167Z,52.36
2019-05-26T02:50:32.565Z,51.16
2019-05-26T02:53:00.872Z,52.02
2019-05-26T02:55:29.246Z,53.84
2019-05-26T02:57:57.645Z,56.00
2019-05-26T03:00:46.120Z,55.67
2019-05-26T03:03:16.384Z,55.06
2019-05-26T03:05:46.016Z,55.45
2019-05-26T03:08:15.572Z,55.15
2019-05-26T03:10:44.411Z,56.16
2019-05-26T03:13:17.225Z,56.50
2019-05-26T03:15:46.519Z,58.53
2019-05-26T03:18:15.373Z,56.03
2019-05-26T03:20:43.823Z,56.70
2019-05-26T03:23:12.603Z,59.55
2019-05-26T03:25:40.972Z,59.74
2019-05-26T03:28:09.282Z,61.52
2019-05-26T03:30:38.236Z,60.80
2019-05-26T03:33:06.804Z,62.19
2019-05-26T03:35:35.246Z,61.89
2019-05-26T03:38:03.993Z,64.11
2019-05-26T03:40:32.673Z,62.57
2019-05-26T03:43:00.969Z,60.12
2019-05-26T03:45:44.373Z,62.22
2019-05-26T03:48:12.834Z,61.53
2019-05-26T03:50:41.165Z,64.69
2019-05-26T03:53:09.743Z,63.47
2019-05-26T03:55:38.073Z,65.56
2019-05-26T03:58:06.441Z,63.56
2019-05-26T04:00:34.741Z,67.58
2019-05-26T04:03:03.080Z,69.00
2019-05-26T04:05:31.361Z,69.12
2019-05-26T04:08:04.301Z,69.88
2019-05-26T04:10:29.769Z,67.75
2019-05-26T04:12:58.808Z,66.76
2019-05-26T04:15:27.109Z,64.82
2019-05-26T04:17:55.797Z,65.48
2019-05-26T04:20:24.091Z,65.16
2019-05-26T04:22:52.501Z,66.56
2019-05-26T04:25:21.165Z,67.11
2019-05-26T04:27:49.452Z,65.03
2019-05-26T04:30:18.415Z,66.81
2019-05-26T04:32:47.038Z,68.79
2019-05-26T04:35:15.434Z,62.94
2019-05-26T04:37:43.733Z,65.20
2019-05-26T04:40:25.579Z,67.14
2019-05-26T04:42:42.239Z,68.11
2019-05-26T04:45:11.204Z,63.93
2019-05-26T04:47:39.501Z,59.95
2019-05-26T04:50:08.161Z,63.50
2019-05-26T04:52:36.841Z,60.94
2019-05-26T04:55:08.403Z,64.36
2019-05-26T04:57:36.891Z,67.17
2019-05-26T05:00:06.825Z,66.09
2019-05-26T05:02:35.138Z,65.72
2019-05-26T05:05:06.341Z,64.30
2019-05-26T05:07:34.660Z,64.23
2019-05-26T05:10:03.398Z,66.60
2019-05-26T05:12:32.089Z,65.75
2019-05-26T05:15:00.391Z,67.39
2019-05-26T05:17:29.051Z,66.98
2019-05-26T05:19:57.370Z,64.16
2019-05-26T05:22:25.669Z,66.06
2019-05-26T05:24:53.989Z,65.55
2019-05-26T05:27:22.281Z,62.78
2019-05-26T05:29:50.613Z,61.75
2019-05-26T05:32:18.909Z,64.85
2019-05-26T05:34:47.234Z,66.74
2019-05-26T05:37:15.601Z,62.95
2019-05-26T05:39:44.206Z,63.78
2019-05-26T05:42:12.887Z,59.81
2019-05-26T05:44:41.202Z,60.72
2019-05-26T05:47:09.865Z,62.66
2019-05-26T05:49:38.533Z,59.99
2019-05-26T05:52:07.321Z,62.52
2019-05-26T05:54:35.633Z,61.84
2019-05-26T05:57:04.191Z,63.23
2019-05-26T05:59:32.892Z,59.05
2019-05-26T06:02:01.564Z,57.55
2019-05-26T06:04:29.898Z,60.13
2019-05-26T06:06:58.641Z,57.87
2019-05-26T06:09:26.963Z,57.80
2019-05-26T06:11:57.071Z,58.23
2019-05-26T06:14:25.385Z,59.05
2019-05-26T06:16:54.021Z,54.21
2019-05-26T06:19:22.338Z,59.65
2019-05-26T06:21:50.710Z,61.45
2019-05-26T06:24:19.236Z,59.12
2019-05-26T06:26:47.540Z,59.01
2019-05-26T06:29:15.841Z,60.07
2019-05-26T06:31:44.274Z,58.87
2019-05-26T06:34:12.727Z,56.02
2019-05-26T06:36:41.120Z,55.51
2019-05-26T06:39:09.479Z,53.88
2019-05-26T06:41:37.877Z,56.10
2019-05-26T06:44:06.316Z,56.83
2019-05-26T06:46:34.683Z,59.71
2019-05-26T06:49:03.376Z,58.07
2019-05-26T06:51:31.966Z,53.77
2019-05-26T06:54:00.285Z,56.17
2019-05-26T06:56:28.585Z,56.00
2019-05-26T06:58:56.915Z,55.03
2019-05-26T07:01:25.376Z,51.37
2019-05-26T07:03:53.743Z,52.68
2019-05-26T07:06:22.133Z,57.54
2019-05-26T07:08:50.525Z,53.68
2019-05-26T07:11:19.381Z,55.08
2019-05-26T07:13:47.693Z,53.09
2019-05-26T07:16:16.090Z,53.32
2019-05-26T07:18:44.460Z,52.56
2019-05-26T07:21:12.871Z,52.68
2019-05-26T07:23:41.173Z,51.67
2019-05-26T07:26:09.548Z,51.95
2019-05-26T07:28:37.867Z,50.75
2019-05-26T07:31:06.588Z,49.13
2019-05-26T07:33:34.976Z,52.29
2019-05-26T07:36:03.410Z,52.49
2019-05-26T07:38:31.731Z,52.68
2019-05-26T07:41:00.034Z,51.19
2019-05-26T07:43:28.540Z,53.73
2019-05-26T07:45:57.136Z,49.74
2019-05-26T07:48:25.419Z,48.18
2019-05-26T07:50:53.731Z,52.26
2019-05-26T07:53:22.174Z,51.21
2019-05-26T07:55:50.575Z,51.50
2019-05-26T07:58:18.887Z,50.75
2019-05-26T08:00:47.204Z,48.88
2019-05-26T08:03:15.541Z,48.70
2019-05-26T08:05:43.859Z,48.11
2019-05-26T08:08:13.569Z,46.55
2019-05-26T08:10:42.214Z,47.09
2019-05-26T08:13:10.924Z,49.91
2019-05-26T08:15:39.219Z,49.20
2019-05-26T08:18:07.685Z,48.75
2019-05-26T08:20:36.366Z,49.19
2019-05-26T08:23:04.668Z,48.27
2019-05-26T08:25:32.993Z,47.45
2019-05-26T08:28:01.291Z,45.36
2019-05-26T08:30:29.669Z,48.22
2019-05-26T08:32:57.979Z,48.25
2019-05-26T08:35:26.283Z,46.96
2019-05-26T08:37:54.613Z,46.59
2019-05-26T08:40:23.102Z,45.73
2019-05-26T08:42:52.712Z,48.91
2019-05-26T08:45:23.018Z,48.10
2019-05-26T08:47:52.213Z,47.26
2019-05-26T08:50:21.371Z,48.95
2019-05-26T08:52:49.673Z,51.18
2019-05-26T08:55:18.069Z,48.27
2019-05-26T08:57:46.413Z,49.55
2019-05-26T09:00:16.295Z,48.78
2019-05-26T09:02:44.665Z,46.92
2019-05-26T09:05:13.591Z,47.32
2019-05-26T09:07:41.918Z,46.24
2019-05-26T09:10:10.352Z,44.54
2019-05-26T09:12:38.666Z,46.34
2019-05-26T09:15:07.598Z,44.87
2019-05-26T09:17:36.208Z,45.34
2019-05-26T09:20:11.167Z,45.09
2019-05-26T09:22:38.831Z,45.49
2019-05-26T09:25:07.958Z,43.70
2019-05-26T09:27:36.263Z,42.61
2019-05-26T09:30:06.613Z,46.61
2019-05-26T09:32:36.164Z,44.82
2019-05-26T09:35:07.479Z,46.97
2019-05-26T09:37:36.775Z,46.85
2019-05-26T09:40:11.690Z,43.18
2019-05-26T09:42:40.250Z,44.08
2019-05-26T09:45:09.424Z,44.24
2019-05-26T09:47:37.986Z,42.51
2019-05-26T09:50:07.704Z,42.44
2019-05-26T09:52:36.719Z,45.41
2019-05-26T09:55:10.203Z,42.60
2019-05-26T09:57:38.821Z,42.50
2019-05-26T10:00:08.587Z,43.20
2019-05-26T10:02:37.039Z,44.60
2019-05-26T10:05:08.783Z,44.09
2019-05-26T10:07:37.144Z,42.75
2019-05-26T10:10:07.375Z,43.38
2019-05-26T10:12:35.793Z,42.58
2019-05-26T10:15:06.006Z,44.17
2019-05-26T10:17:34.462Z,40.94
2019-05-26T10:20:03.649Z,43.32
2019-05-26T10:22:32.023Z,41.01
2019-05-26T10:25:00.317Z,43.22
2019-05-26T10:27:28.645Z,41.44
2019-05-26T10:29:57.069Z,41.40
2019-05-26T10:32:25.386Z,42.83
2019-05-26T10:34:53.697Z,41.46
2019-05-26T10:37:21.993Z,38.98
2019-05-26T10:39:50.310Z,41.87
2019-05-26T10:42:18.609Z,39.74
2019-05-26T10:44:46.930Z,40.10
2019-05-26T10:47:15.540Z,41.90
2019-05-26T10:49:44.795Z,40.60
2019-05-26T10:52:13.531Z,39.65
2019-05-26T10:54:41.857Z,42.15
2019-05-26T10:57:10.415Z,42.22
2019-05-26T10:59:39.086Z,40.07
2019-05-26T11:02:07.451Z,38.78
2019-05-26T11:04:35.753Z,39.01
2019-05-26T11:07:04.410Z,38.44
2019-05-26T11:09:32.775Z,38.28
2019-05-26T11:12:01.099Z,39.27
2019-05-26T11:14:29.790Z,39.78
2019-05-26T11:16:58.105Z,39.59
2019-05-26T11:19:26.859Z,36.65
2019-05-26T11:21:55.550Z,38.33
2019-05-26T11:24:23.849Z,37.30
2019-05-26T11:26:52.628Z,37.34
2019-05-26T11:29:20.938Z,38.46
2019-05-26T11:31:49.359Z,35.74
2019-05-26T11:34:17.777Z,39.05
2019-05-26T11:36:46.071Z,36.80
2019-05-26T11:39:14.397Z,33.79
2019-05-26T11:41:42.693Z,33.79
2019-05-26T11:44:17.846Z,34.33
2019-05-26T11:46:41.110Z,34.81
2019-05-26T11:49:09.812Z,32.80
2019-05-26T11:51:38.276Z,32.62
2019-05-26T11:54:06.644Z,32.64
2019-05-26T11:56:35.034Z,31.36
2019-05-26T11:59:03.730Z,32.24
2019-05-26T12:01:32.055Z,34.82
2019-05-26T12:04:00.349Z,33.04
2019-05-26T12:06:28.662Z,31.45
2019-05-26T12:08:57.051Z,31.53
2019-05-26T12:11:25.351Z,31.61
2019-05-26T12:13:54.479Z,29.92
2019-05-26T12:16:23.123Z,31.28
2019-05-26T12:18:51.537Z,28.20
2019-05-26T12:21:19.910Z,28.04
2019-05-26T12:23:48.249Z,31.58
2019-05-26T12:26:16.541Z,29.74
2019-05-26T12:28:44.842Z,30.39
2019-05-26T12:31:13.165Z,29.68
2019-05-26T12:33:41.462Z,29.23
2019-05-26T12:36:10.068Z,31.22
2019-05-26T12:38:40.015Z,30.06
2019-05-26T12:41:08.417Z,31.24
2019-05-26T12:43:36.717Z,28.50
2019-05-26T12:46:05.026Z,30.29
2019-05-26T12:48:33.726Z,30.24
2019-05-26T12:51:02.120Z,30.13
2019-05-26T12:53:30.481Z,29.40
2019-05-26T12:55:59.568Z,29.82
2019-05-26T12:58:27.831Z,30.73
2019-05-26T13:00:56.148Z,30.40
2019-05-26T13:03:24.513Z,29.38
2019-05-26T13:05:52.812Z,28.79
2019-05-26T13:08:21.489Z,27.92
2019-05-26T13:10:49.797Z,31.31
2019-05-26T13:13:18.309Z,27.91
2019-05-26T13:15:46.654Z,29.10
2019-05-26T13:18:15.327Z,29.11
2019-05-26T13:20:44.015Z,28.60
2019-05-26T13:23:12.479Z,28.18
2019-05-26T13:25:40.795Z,28.80
2019-05-26T13:28:09.233Z,27.82
2019-05-26T13:30:37.927Z,28.45
2019-05-26T13:33:06.229Z,28.48
2019-05-26T13:35:34.548Z,28.54
2019-05-26T13:38:02.987Z,29.86
2019-05-26T13:40:31.308Z,27.09
2019-05-26T13:42:59.754Z,27.64
2019-05-26T13:45:28.047Z,27.01
2019-05-26T13:47:56.563Z,27.14
2019-05-26T13:50:24.924Z,27.25
2019-05-26T13:52:53.247Z,28.20
2019-05-26T13:55:22.281Z,27.39
2019-05-26T13:57:50.985Z,28.13
2019-05-26T14:00:20.172Z,26.96
2019-05-26T14:02:48.736Z,28.34
2019-05-26T14:05:17.654Z,27.35
2019-05-26T14:07:46.032Z,26.40
2019-05-26T14:10:16.093Z,27.98
2019-05-26T14:12:44.864Z,30.37
2019-05-26T14:15:13.548Z,29.49
2019-05-26T14:17:42.831Z,29.30
2019-05-26T14:20:11.614Z,27.16
2019-05-26T14:22:40.231Z,27.00
2019-05-26T14:25:10.238Z,26.79
2019-05-26T14:27:38.925Z,25.04
2019-05-26T14:30:08.063Z,24.43
2019-05-26T14:32:37.401Z,25.95
2019-05-26T14:35:06.957Z,27.16
2019-05-26T14:37:35.277Z,27.89
2019-05-26T14:40:05.507Z,29.43
2019-05-26T14:42:34.235Z,26.21
2019-05-26T14:45:04.020Z,26.85
2019-05-26T14:47:32.719Z,26.24
2019-05-26T14:50:01.023Z,27.16
2019-05-26T14:52:29.705Z,25.52
2019-05-26T14:54:58.005Z,24.97
2019-05-26T14:57:26.675Z,25.97
2019-05-26T14:59:55.265Z,25.94
2019-05-26T15:02:23.756Z,25.94
2019-05-26T15:04:52.085Z,25.98
2019-05-26T15:07:20.387Z,25.58
2019-05-26T15:09:48.786Z,24.52
2019-05-26T15:12:17.090Z,24.98
2019-05-26T15:14:45.385Z,24.62
2019-05-26T15:17:13.694Z,25.84
2019-05-26T15:19:42.120Z,27.72
2019-05-26T15:22:10.797Z,25.14
2019-05-26T15:24:39.092Z,25.17
2019-05-26T15:27:07.484Z,24.70
2019-05-26T15:29:35.778Z,24.43
2019-05-26T15:32:04.191Z,24.23
2019-05-26T15:34:32.614Z,25.20
2019-05-26T15:37:00.894Z,24.30
2019-05-26T15:39:29.391Z,24.80
2019-05-26T15:41:57.687Z,25.50
2019-05-26T15:44:26.334Z,25.08
2019-05-26T15:46:54.645Z,26.06
2019-05-26T15:49:22.955Z,24.79
2019-05-26T15:51:51.600Z,24.84
2019-05-26T15:54:20.801Z,24.93
2019-05-26T15:56:49.095Z,24.05
2019-05-26T15:59:18.169Z,24.88
2019-05-26T16:01:47.881Z,23.99
2019-05-26T16:04:16.173Z,24.39
2019-05-26T16:06:44.960Z,24.76
2019-05-26T16:09:13.269Z,24.62
2019-05-26T16:11:43.645Z,23.40
2019-05-26T16:14:12.087Z,23.66
2019-05-26T16:16:41.824Z,23.04
2019-05-26T16:19:10.450Z,24.81
2019-05-26T16:21:38.777Z,24.23
2019-05-26T16:24:07.147Z,23.71
2019-05-26T16:26:35.787Z,23.33
2019-05-26T16:29:04.857Z,25.19
2019-05-26T16:31:33.163Z,25.11
2019-05-26T16:34:01.500Z,24.31
2019-05-26T16:36:30.134Z,24.58
2019-05-26T16:38:58.500Z,26.03
2019-05-26T16:41:26.767Z,25.08
2019-05-26T16:43:55.062Z,23.28
2019-05-26T16:46:23.761Z,22.98
2019-05-26T16:48:54.607Z,23.57
2019-05-26T16:51:22.104Z,24.89
2019-05-26T16:53:50.405Z,23.97
2019-05-26T16:56:18.699Z,23.88
2019-05-26T16:58:47.014Z,23.01
2019-05-26T17:01:15.316Z,23.12
2019-05-26T17:03:43.663Z,22.54
2019-05-26T17:06:11.974Z,22.69
2019-05-26T17:08:40.254Z,22.02
2019-05-26T17:11:08.910Z,22.33
2019-05-26T17:13:37.209Z,21.61
2019-05-26T17:16:05.543Z,24.32
2019-05-26T17:18:33.917Z,23.20
2019-05-26T17:21:02.212Z,23.21
2019-05-26T17:23:30.635Z,23.24
2019-05-26T17:25:59.310Z,23.34
2019-05-26T17:28:27.826Z,24.18
2019-05-26T17:30:56.192Z,23.23
2019-05-26T17:33:24.509Z,22.87
2019-05-26T17:35:52.887Z,23.12
2019-05-26T17:38:21.194Z,25.82
2019-05-26T17:40:49.806Z,26.27
2019-05-26T17:43:18.171Z,27.95
2019-05-26T17:45:46.971Z,26.07
2019-05-26T17:48:15.345Z,27.45
2019-05-26T17:50:43.670Z,26.82
2019-05-26T17:53:11.969Z,27.32
2019-05-26T17:55:40.287Z,27.63
2019-05-26T17:58:08.597Z,26.48
2019-05-26T18:00:36.972Z,25.78
2019-05-26T18:03:05.425Z,25.70
2019-05-26T18:05:33.775Z,26.94
2019-05-26T18:08:02.089Z,26.40
2019-05-26T18:10:30.392Z,27.59
2019-05-26T18:12:58.710Z,28.69
2019-05-26T18:15:27.004Z,28.44
2019-05-26T18:17:55.337Z,27.53
2019-05-26T18:20:23.709Z,27.72
2019-05-26T18:22:52.050Z,28.15
2019-05-26T18:25:20.421Z,29.39
2019-05-26T18:27:48.725Z,29.47
2019-05-26T18:30:18.410Z,30.77
2019-05-26T18:32:46.713Z,31.25
2019-05-26T18:35:15.105Z,33.13
2019-05-26T18:37:43.597Z,33.24
2019-05-26T18:40:12.480Z,33.64
2019-05-26T18:42:40.850Z,33.80
2019-05-26T18:45:10.123Z,33.63
2019-05-26T18:47:38.499Z,32.72
2019-05-26T18:50:07.728Z,32.05
2019-05-26T18:52:36.040Z,32.48
2019-05-26T18:55:05.309Z,31.93
2019-05-26T18:57:33.623Z,33.28
2019-05-26T19:00:02.222Z,32.76
2019-05-26T19:02:30.911Z,33.31
2019-05-26T19:04:59.206Z,33.15
2019-05-26T19:07:27.523Z,32.50
2019-05-26T19:09:55.816Z,32.80
2019-05-26T19:12:24.438Z,34.10
2019-05-26T19:14:52.785Z,33.41
2019-05-26T19:17:21.230Z,34.72
2019-05-26T19:19:49.539Z,33.97
2019-05-26T19:22:17.871Z,34.27
2019-05-26T19:24:46.194Z,34.12
2019-05-26T19:27:14.694Z,34.39
2019-05-26T19:29:43.158Z,34.86
2019-05-26T19:32:11.643Z,34.40
2019-05-26T19:34:40.017Z,35.39
2019-05-26T19:37:08.380Z,35.38
2019-05-26T19:39:37.142Z,35.95
2019-05-26T19:42:05.796Z,36.29
2019-05-26T19:44:34.522Z,36.28
2019-05-26T19:47:02.963Z,34.92
2019-05-26T19:49:31.426Z,35.38
2019-05-26T19:51:59.810Z,37.01
2019-05-26T19:54:28.206Z,39.48
2019-05-26T19:56:56.502Z,37.57
2019-05-26T19:59:24.830Z,36.97
2019-05-26T20:01:53.143Z,36.80
2019-05-26T20:04:21.726Z,37.08
2019-05-26T20:06:50.829Z,37.30
2019-05-26T20:09:19.274Z,37.79
2019-05-26T20:11:47.673Z,38.29
2019-05-26T20:14:16.339Z,39.05
2019-05-26T20:16:44.722Z,40.15
2019-05-26T20:19:13.153Z,40.30
2019-05-26T20:21:41.555Z,42.18
2019-05-26T20:24:10.065Z,44.74
2019-05-26T20:26:38.432Z,43.44
2019-05-26T20:29:06.887Z,44.59
2019-05-26T20:31:35.189Z,43.93
2019-05-26T20:34:03.620Z,45.11
2019-05-26T20:36:32.008Z,44.17
2019-05-26T20:39:00.409Z,44.25
2019-05-26T20:41:28.850Z,43.46
2019-05-26T20:43:57.169Z,44.23
2019-05-26T20:46:25.478Z,42.26
2019-05-26T20:48:54.730Z,43.46
2019-05-26T20:51:23.729Z,45.38
2019-05-26T20:53:52.389Z,40.26
2019-05-26T20:56:20.723Z,44.11
2019-05-26T20:58:49.015Z,43.91
2019-05-26T21:01:17.383Z,43.50
2019-05-26T21:03:45.699Z,44.39
2019-05-26T21:06:14.132Z,45.38
2019-05-26T21:08:42.463Z,43.59
2019-05-26T21:11:10.832Z,42.28
2019-05-26T21:13:39.126Z,41.89
2019-05-26T21:16:07.443Z,41.63
2019-05-26T21:18:35.792Z,39.71
2019-05-26T21:21:04.363Z,39.56
2019-05-26T21:23:32.669Z,39.10
2019-05-26T21:26:01.050Z,40.14
2019-05-26T21:28:29.363Z,40.00
2019-05-26T21:30:57.686Z,38.77
2019-05-26T21:33:26.053Z,38.87
2019-05-26T21:35:54.462Z,39.81
2019-05-26T21:38:22.758Z,38.35
2019-05-26T21:40:51.051Z,39.81
2019-05-26T21:43:19.484Z,38.50
2019-05-26T21:45:47.794Z,39.17
2019-05-26T21:48:16.101Z,40.93
2019-05-26T21:50:44.399Z,41.60
2019-05-26T21:53:12.962Z,40.82
2019-05-26T21:55:41.328Z,39.53
2019-05-26T21:58:09.623Z,39.35
2019-05-26T22:00:42.624Z,39.62
2019-05-26T22:03:11.326Z,40.88
2019-05-26T22:05:39.765Z,40.57
2019-05-26T22:08:08.097Z,44.16
2019-05-26T22:10:37.102Z,42.24
2019-05-26T22:13:05.535Z,42.06
2019-05-26T22:15:34.008Z,41.96
2019-05-26T22:18:02.548Z,41.09
2019-05-26T22:20:30.961Z,41.10
2019-05-26T22:22:59.472Z,43.50
2019-05-26T22:25:27.840Z,44.25
2019-05-26T22:27:56.239Z,42.26
2019-05-26T22:30:24.718Z,41.93
2019-05-26T22:32:53.030Z,42.75
2019-05-26T22:35:21.604Z,43.70
2019-05-26T22:37:49.899Z,42.32
2019-05-26T22:40:18.218Z,42.63
2019-05-26T22:42:46.641Z,42.46
2019-05-26T22:45:16.864Z,42.35
2019-05-26T22:47:45.184Z,41.86
2019-05-26T22:50:14.081Z,43.48
2019-05-26T22:52:42.460Z,42.51
2019-05-26T22:55:11.362Z,42.08
2019-05-26T22:57:39.791Z,43.73
2019-05-26T23:00:10.138Z,44.08
2019-05-26T23:02:38.574Z,43.20
2019-05-26T23:05:09.017Z,38.20
2019-05-26T23:07:37.337Z,42.98
2019-05-26T23:10:07.446Z,42.78
2019-05-26T23:12:35.828Z,42.00
2019-05-26T23:15:06.734Z,43.61
2019-05-26T23:17:36.697Z,46.25
2019-05-26T23:20:06.232Z,47.32
2019-05-26T23:22:34.562Z,46.58
2019-05-26T23:25:02.927Z,45.19
2019-05-26T23:27:31.318Z,44.89
2019-05-26T23:29:59.993Z,46.02
2019-05-26T23:32:28.323Z,43.84
2019-05-26T23:34:56.623Z,43.37
2019-05-26T23:37:24.996Z,43.76
2019-05-26T23:39:53.306Z,43.39
2019-05-26T23:42:21.604Z,42.74
2019-05-26T23:44:49.923Z,42.84
2019-05-26T23:47:18.215Z,45.17
2019-05-26T23:49:46.531Z,45.20
2019-05-26T23:52:14.833Z,46.93
2019-05-26T23:54:43.140Z,48.22
2019-05-26T23:57:11.505Z,46.24
2019-05-26T23:59:40.472Z,47.27
